createdAt,value
2023-01-11T00:02:10.899Z,76.70
2023-01-11T00:04:42.632Z,67.60
2023-01-11T00:07:16.594Z,76.50
2023-01-11T00:09:48.245Z,63.90
2023-01-11T00:12:19.847Z,60.50
2023-01-11T00:14:56.833Z,55.90
2023-01-11T00:17:29.655Z,61.50
2023-01-11T00:20:01.329Z,62.10
2023-01-11T00:22:32.933Z,53.30
2023-01-11T00:25:11.845Z,54.70
2023-01-11T00:27:43.619Z,55.30
2023-01-11T00:30:16.942Z,60.40
2023-01-11T00:32:48.585Z,53.50
2023-01-11T00:35:20.220Z,51.80
2023-01-11T00:37:54.652Z,48.10
2023-01-11T00:40:27.243Z,45.70
2023-01-11T00:43:37.339Z,54.90
2023-01-11T00:46:28.260Z,39.50
2023-01-11T00:48:59.940Z,48.40
2023-01-11T00:51:31.524Z,58.60
2023-01-11T00:54:03.238Z,60.40
2023-01-11T00:56:36.065Z,59.20
2023-01-11T00:59:09.962Z,49.40
2023-01-11T01:01:41.631Z,60.60
2023-01-11T01:04:13.332Z,56.40
2023-01-11T01:06:45.056Z,52.40
2023-01-11T01:09:18.208Z,46.10
2023-01-11T01:11:49.935Z,51.40
2023-01-11T01:14:26.712Z,57.70
2023-01-11T01:17:08.061Z,54.50
2023-01-11T01:19:39.801Z,53.70
2023-01-11T01:22:11.429Z,49.80
2023-01-11T01:24:42.980Z,55.70
2023-01-11T01:27:17.867Z,50.30
2023-01-11T01:29:52.517Z,49.70
2023-01-11T01:32:24.167Z,52.50
2023-01-11T01:34:56.099Z,56.90
2023-01-11T01:37:30.506Z,55.70
2023-01-11T01:40:02.172Z,56.90
2023-01-11T01:42:33.787Z,57.10
2023-01-11T01:45:23.281Z,57.90
2023-01-11T01:48:02.543Z,51.20
2023-01-11T01:50:54.961Z,54.90
2023-01-11T01:53:35.961Z,56.70
2023-01-11T01:56:13.971Z,49.40
2023-01-11T01:58:54.978Z,54.10
2023-01-11T02:01:46.322Z,65.70
2023-01-11T02:04:20.862Z,60.00
2023-01-11T02:06:58.173Z,52.90
2023-01-11T02:09:39.044Z,48.80
2023-01-11T02:12:11.678Z,51.50
2023-01-11T02:14:44.985Z,60.80
2023-01-11T02:17:16.552Z,58.70
2023-01-11T02:19:57.463Z,49.60
2023-01-11T02:22:57.233Z,48.70
2023-01-11T02:25:50.328Z,53.80
2023-01-11T02:28:49.852Z,52.10
2023-01-11T02:31:33.740Z,47.50
2023-01-11T02:34:23.077Z,48.70
2023-01-11T02:37:05.662Z,46.40
2023-01-11T02:40:23.052Z,49.90
2023-01-11T02:43:33.490Z,51.50
2023-01-11T02:46:11.016Z,55.00
2023-01-11T02:48:59.973Z,50.20
2023-01-11T02:51:47.397Z,56.70
2023-01-11T02:54:21.589Z,54.00
2023-01-11T02:56:59.066Z,54.60
2023-01-11T02:59:33.195Z,56.80
2023-01-11T03:02:04.804Z,48.80
2023-01-11T03:04:37.933Z,52.00
2023-01-11T03:07:46.593Z,44.20
2023-01-11T03:10:30.273Z,46.50
2023-01-11T03:13:07.795Z,44.50
2023-01-11T03:15:57.332Z,51.70
2023-01-11T03:18:34.877Z,44.80
2023-01-11T03:21:29.173Z,47.90
2023-01-11T03:24:34.461Z,39.20
2023-01-11T03:27:05.965Z,40.00
2023-01-11T03:30:13.228Z,40.10
2023-01-11T03:33:01.369Z,35.60
2023-01-11T03:35:53.511Z,38.90
2023-01-11T03:38:30.748Z,45.20
2023-01-11T03:41:08.307Z,39.30
2023-01-11T03:43:44.211Z,37.70
2023-01-11T03:46:31.469Z,36.20
2023-01-11T03:49:09.387Z,34.60
2023-01-11T03:51:44.284Z,43.50
2023-01-11T03:54:22.050Z,39.00
2023-01-11T03:57:04.603Z,38.50
2023-01-11T03:59:36.791Z,36.00
2023-01-11T04:02:19.730Z,37.10
2023-01-11T04:04:51.405Z,39.10
2023-01-11T04:07:23.046Z,35.60
2023-01-11T04:09:54.672Z,43.60
2023-01-11T04:12:26.892Z,37.80
2023-01-11T04:15:01.624Z,38.30
2023-01-11T04:17:33.611Z,39.20
2023-01-11T04:20:06.037Z,31.30
2023-01-11T04:22:38.655Z,35.70
2023-01-11T04:25:10.384Z,36.10
2023-01-11T04:27:42.018Z,31.40
2023-01-11T04:30:13.854Z,37.60
2023-01-11T04:32:47.407Z,37.70
2023-01-11T04:37:56.366Z,39.00
2023-01-11T04:40:28.360Z,38.00
2023-01-11T04:43:02.457Z,38.80
2023-01-11T04:45:34.231Z,36.70
2023-01-11T04:48:06.150Z,35.50
2023-01-11T04:50:38.214Z,40.30
2023-01-11T04:53:09.865Z,40.00
2023-01-11T04:55:41.512Z,35.40
2023-01-11T04:58:15.899Z,36.80
2023-01-11T05:00:47.489Z,34.00
2023-01-11T05:03:23.719Z,32.70
2023-01-11T05:06:00.800Z,35.00
2023-01-11T05:08:32.932Z,34.50
2023-01-11T05:11:07.764Z,28.60
2023-01-11T05:13:41.976Z,28.20
2023-01-11T05:16:24.420Z,26.30
2023-01-11T05:18:59.024Z,25.90
2023-01-11T05:21:37.155Z,28.60
2023-01-11T05:24:12.998Z,23.70
2023-01-11T05:26:46.221Z,28.00
2023-01-11T05:29:21.563Z,25.50
2023-01-11T05:31:53.381Z,25.40
2023-01-11T05:34:25.501Z,21.50
2023-01-11T05:37:01.581Z,24.90
2023-01-11T05:39:33.217Z,22.40
2023-01-11T05:42:05.049Z,21.80
2023-01-11T05:44:58.003Z,24.30
2023-01-11T05:47:29.819Z,28.00
2023-01-11T05:50:01.530Z,28.40
2023-01-11T05:52:33.138Z,27.90
2023-01-11T05:55:05.569Z,28.80
2023-01-11T05:57:37.334Z,28.10
2023-01-11T06:00:10.160Z,29.40
2023-01-11T06:02:45.422Z,30.50
2023-01-11T06:05:17.449Z,29.90
2023-01-11T06:07:49.286Z,30.00
2023-01-11T06:10:21.050Z,27.80
2023-01-11T06:13:13.092Z,27.00
2023-01-11T06:15:45.123Z,28.90
2023-01-11T06:18:16.978Z,33.10
2023-01-11T06:20:53.279Z,33.50
2023-01-11T06:23:25.707Z,29.50
2023-01-11T06:25:57.433Z,30.10
2023-01-11T06:28:29.231Z,27.50
2023-01-11T06:31:01.781Z,28.90
2023-01-11T06:33:37.117Z,28.10
2023-01-11T06:36:11.821Z,30.00
2023-01-11T06:38:44.156Z,31.20
2023-01-11T06:41:18.991Z,32.20
2023-01-11T06:43:53.623Z,29.30
2023-01-11T06:46:27.502Z,23.20
2023-01-11T06:49:03.159Z,23.70
2023-01-11T06:51:34.974Z,26.30
2023-01-11T06:54:06.684Z,26.90
2023-01-11T06:56:38.549Z,22.90
2023-01-11T06:59:10.291Z,23.80
2023-01-11T07:01:43.555Z,25.90
2023-01-11T07:04:15.908Z,23.80
2023-01-11T07:06:54.439Z,22.60
2023-01-11T07:09:28.544Z,27.80
2023-01-11T07:12:00.286Z,25.20
2023-01-11T07:14:32.005Z,23.10
2023-01-11T07:17:03.618Z,26.10
2023-01-11T07:19:35.413Z,24.80
2023-01-11T07:22:07.271Z,24.50
2023-01-11T07:24:39.079Z,22.50
2023-01-11T07:27:10.807Z,22.20
2023-01-11T07:29:42.751Z,24.20
2023-01-11T07:32:14.749Z,24.90
2023-01-11T07:34:46.982Z,23.20
2023-01-11T07:37:28.292Z,25.30
2023-01-11T07:40:01.014Z,20.00
2023-01-11T07:42:51.896Z,20.20
2023-01-11T07:45:37.384Z,23.80
2023-01-11T07:48:25.288Z,23.30
2023-01-11T07:50:57.386Z,20.80
2023-01-11T07:53:29.084Z,19.00
2023-01-11T07:56:00.804Z,24.20
2023-01-11T07:58:32.839Z,21.90
2023-01-11T08:01:06.111Z,22.70
2023-01-11T08:03:38.004Z,24.00
2023-01-11T08:06:09.819Z,22.90
2023-01-11T08:08:42.637Z,21.00
2023-01-11T08:11:32.997Z,20.40
2023-01-11T08:14:29.403Z,20.00
2023-01-11T08:17:01.215Z,23.40
2023-01-11T08:19:36.022Z,19.90
2023-01-11T08:22:09.268Z,18.70
2023-01-11T08:24:41.188Z,20.20
2023-01-11T08:27:13.300Z,20.90
2023-01-11T08:29:45.158Z,18.30
2023-01-11T08:32:16.968Z,22.90
2023-01-11T08:34:48.767Z,22.10
2023-01-11T08:37:20.518Z,19.20
2023-01-11T08:39:52.164Z,19.20
2023-01-11T08:42:24.302Z,21.50
2023-01-11T08:44:56.048Z,19.90
2023-01-11T08:47:28.937Z,23.80
2023-01-11T08:50:01.250Z,19.70
2023-01-11T08:52:35.941Z,18.80
2023-01-11T08:55:08.239Z,19.60
2023-01-11T08:57:40.057Z,21.80
2023-01-11T09:00:13.293Z,18.70
2023-01-11T09:02:46.163Z,21.80
2023-01-11T09:05:18.427Z,21.40
2023-01-11T09:07:50.559Z,21.20
2023-01-11T09:10:26.928Z,18.50
2023-01-11T09:12:59.467Z,21.70
2023-01-11T09:15:31.583Z,21.90
2023-01-11T09:18:03.525Z,22.00
2023-01-11T09:20:35.405Z,23.70
2023-01-11T09:23:07.477Z,19.70
2023-01-11T09:25:39.236Z,18.60
2023-01-11T09:28:11.086Z,19.00
2023-01-11T09:30:42.803Z,17.10
2023-01-11T09:33:14.636Z,19.00
2023-01-11T09:35:47.173Z,20.90
2023-01-11T09:38:19.764Z,18.10
2023-01-11T09:41:06.462Z,20.20
2023-01-11T09:43:54.454Z,17.00
2023-01-11T09:46:29.428Z,17.00
2023-01-11T09:49:04.235Z,17.60
2023-01-11T09:51:40.144Z,17.10
2023-01-11T09:54:21.193Z,16.90
2023-01-11T09:57:31.078Z,14.10
2023-01-11T10:00:28.006Z,18.30
2023-01-11T10:03:22.386Z,16.40
2023-01-11T10:18:29.107Z,15.70
2023-01-11T10:18:39.624Z,17.80
2023-01-11T10:21:31.357Z,16.10
2023-01-11T10:24:12.724Z,16.40
2023-01-11T10:26:44.897Z,15.60
2023-01-11T10:29:40.380Z,13.70
2023-01-11T10:32:34.785Z,13.90
2023-01-11T10:35:59.214Z,17.30
2023-01-11T10:38:52.036Z,15.40
2023-01-11T10:41:30.122Z,16.70
2023-01-11T10:44:10.965Z,16.20
2023-01-11T10:46:48.324Z,16.10
2023-01-11T10:49:30.534Z,17.70
2023-01-11T10:52:28.618Z,16.60
2023-01-11T10:55:03.155Z,20.00
2023-01-11T10:58:01.925Z,16.20
2023-01-11T11:01:08.613Z,16.80
2023-01-11T11:04:13.881Z,17.40
2023-01-11T11:07:10.030Z,14.40
2023-01-11T11:09:47.666Z,15.90
2023-01-11T11:12:27.245Z,16.10
2023-01-11T11:15:12.627Z,19.70
2023-01-11T11:17:51.378Z,16.20
2023-01-11T11:20:31.703Z,16.30
2023-01-11T11:23:03.466Z,15.00
2023-01-11T11:25:43.324Z,17.90
2023-01-11T11:28:15.108Z,15.90
2023-01-11T11:30:47.667Z,17.40
2023-01-11T11:33:26.167Z,17.80
2023-01-11T11:36:01.539Z,20.70
2023-01-11T11:38:36.722Z,18.60
2023-01-11T11:41:12.730Z,19.30
2023-01-11T11:43:46.827Z,16.00
2023-01-11T11:46:27.791Z,17.00
2023-01-11T11:49:08.905Z,16.60
2023-01-11T11:51:42.913Z,16.20
2023-01-11T11:54:41.763Z,15.20
2023-01-11T11:57:21.595Z,18.10
2023-01-11T12:00:07.535Z,18.80
2023-01-11T12:02:48.572Z,19.10
2023-01-11T12:05:20.493Z,17.90
2023-01-11T12:07:55.477Z,15.00
2023-01-11T12:10:30.311Z,15.30
2023-01-11T12:13:03.909Z,17.00
2023-01-11T12:18:50.985Z,19.60
2023-01-11T12:21:25.686Z,17.10
2023-01-11T12:24:13.304Z,18.70
2023-01-11T12:27:06.029Z,20.10
2023-01-11T12:29:49.544Z,19.40
2023-01-11T12:32:30.758Z,17.40
2023-01-11T12:35:50.843Z,26.20
2023-01-11T12:38:24.607Z,22.80
2023-01-11T12:41:19.151Z,20.00
2023-01-11T12:44:14.014Z,20.40
2023-01-11T12:46:57.881Z,19.00
2023-01-11T12:52:41.828Z,27.70
2023-01-11T12:55:15.457Z,24.40
2023-01-11T13:00:37.185Z,22.70
2023-01-11T13:03:29.775Z,14.50
2023-01-11T13:06:34.620Z,19.70
2023-01-11T13:09:45.958Z,22.50
2023-01-11T13:12:37.063Z,17.40
2023-01-11T13:15:34.260Z,19.90
2023-01-11T13:18:31.576Z,20.30
2023-01-11T13:21:44.742Z,18.40
2023-01-11T13:24:33.596Z,17.40
2023-01-11T13:27:12.077Z,18.60
2023-01-11T13:29:47.623Z,19.50
2023-01-11T13:32:26.343Z,19.60
2023-01-11T13:35:07.424Z,17.60
2023-01-11T13:37:53.766Z,18.00
2023-01-11T13:40:33.085Z,15.50
2023-01-11T13:43:21.297Z,22.00
2023-01-11T13:46:06.289Z,20.00
2023-01-11T13:48:45.063Z,17.30
2023-01-11T13:51:19.508Z,17.20
2023-01-11T13:54:04.486Z,21.30
2023-01-11T13:56:46.492Z,21.10
2023-01-11T13:59:47.234Z,20.70
2023-01-11T14:02:38.151Z,17.80
2023-01-11T14:05:21.556Z,18.20
2023-01-11T14:08:03.074Z,16.80
2023-01-11T14:11:04.191Z,17.40
2023-01-11T14:14:13.407Z,19.00
2023-01-11T14:17:24.349Z,18.00
2023-01-11T14:20:08.005Z,23.50
2023-01-11T14:22:45.843Z,21.30
2023-01-11T14:25:33.515Z,23.70
2023-01-11T14:28:26.767Z,18.80
2023-01-11T14:31:14.720Z,22.30
2023-01-11T14:34:09.895Z,21.40
2023-01-11T14:36:56.994Z,19.60
2023-01-11T14:39:41.557Z,20.00
2023-01-11T14:42:44.139Z,17.10
2023-01-11T14:45:29.399Z,20.30
2023-01-11T14:48:25.427Z,18.70
2023-01-11T14:51:15.928Z,20.20
2023-01-11T14:53:58.264Z,18.80
2023-01-11T14:56:57.132Z,19.40
2023-01-11T14:59:32.048Z,17.40
2023-01-11T15:02:03.897Z,20.00
2023-01-11T15:04:55.122Z,22.40
2023-01-11T15:07:29.828Z,17.80
2023-01-11T15:10:22.437Z,20.30
2023-01-11T15:12:58.428Z,19.40
2023-01-11T15:15:49.603Z,22.40
2023-01-11T15:18:24.671Z,24.50
2023-01-11T15:21:06.378Z,18.30
2023-01-11T15:23:49.434Z,24.00
2023-01-11T15:26:24.113Z,19.50
2023-01-11T15:29:02.712Z,20.60
2023-01-11T15:32:09.583Z,22.40
2023-01-11T15:34:44.643Z,22.40
2023-01-11T15:37:39.627Z,25.70
2023-01-11T15:40:25.212Z,19.70
2023-01-11T15:43:21.775Z,20.10
2023-01-11T15:46:31.213Z,18.90
2023-01-11T15:49:21.805Z,20.80
2023-01-11T15:51:53.359Z,20.00
2023-01-11T15:54:24.969Z,22.10
2023-01-11T15:57:18.396Z,20.30
2023-01-11T15:59:59.415Z,20.30
2023-01-11T16:02:49.465Z,19.00
2023-01-11T16:05:27.682Z,22.50
2023-01-11T16:08:23.056Z,29.00
2023-01-11T16:11:16.702Z,18.50
2023-01-11T16:17:01.067Z,19.20
2023-01-11T16:19:35.876Z,18.30
2023-01-11T16:22:19.782Z,21.90
2023-01-11T16:27:33.160Z,19.50
2023-01-11T16:30:05.553Z,23.20
2023-01-11T16:32:37.751Z,21.70
2023-01-11T16:35:25.013Z,22.80
2023-01-11T16:37:59.388Z,23.50
2023-01-11T16:40:37.961Z,22.90
2023-01-11T16:43:16.035Z,20.20
2023-01-11T16:45:50.281Z,20.70
2023-01-11T16:48:29.537Z,22.70
2023-01-11T16:51:09.299Z,18.80
2023-01-11T16:53:42.811Z,28.30
2023-01-11T16:59:15.716Z,24.80
2023-01-11T17:01:54.048Z,27.10
2023-01-11T17:04:29.776Z,35.30
2023-01-11T17:07:22.099Z,25.00
2023-01-11T17:09:54.082Z,22.70
2023-01-11T17:12:27.593Z,25.30
2023-01-11T17:15:59.996Z,21.30
2023-01-11T17:18:31.392Z,23.10
2023-01-11T17:21:05.384Z,23.40
2023-01-11T17:23:44.159Z,28.00
2023-01-11T17:26:22.030Z,27.00
2023-01-11T17:36:11.873Z,24.30
2023-01-11T17:38:45.242Z,22.60
2023-01-11T17:41:36.634Z,26.10
2023-01-11T17:44:35.390Z,25.00
2023-01-11T17:47:11.062Z,23.10
2023-01-11T17:49:44.796Z,24.50
2023-01-11T17:52:24.669Z,22.00
2023-01-11T17:55:17.259Z,26.80
2023-01-11T17:58:19.185Z,28.00
2023-01-11T18:01:16.410Z,30.60
2023-01-11T18:03:58.690Z,34.80
2023-01-11T18:06:45.118Z,27.30
2023-01-11T18:09:31.038Z,29.20
2023-01-11T18:12:18.338Z,31.10
2023-01-11T18:15:02.849Z,31.30
2023-01-11T18:17:36.247Z,28.00
2023-01-11T18:20:11.020Z,26.80
2023-01-11T18:22:56.188Z,27.10
2023-01-11T18:25:30.450Z,33.30
2023-01-11T18:28:27.651Z,35.00
2023-01-11T18:31:02.039Z,39.90
2023-01-11T18:33:44.267Z,37.90
2023-01-11T18:36:22.875Z,39.50
2023-01-11T18:38:54.559Z,47.70
2023-01-11T18:41:44.891Z,55.40
2023-01-11T18:44:16.685Z,47.70
2023-01-11T18:46:48.343Z,45.00
2023-01-11T18:49:20.417Z,42.70
2023-01-11T18:51:52.160Z,44.10
2023-01-11T18:54:23.780Z,43.60
2023-01-11T18:56:55.379Z,42.00
2023-01-11T18:59:27.018Z,47.40
2023-01-11T19:02:16.628Z,48.70
2023-01-11T19:04:49.682Z,41.40
2023-01-11T19:07:23.120Z,38.80
2023-01-11T19:09:55.083Z,42.60
2023-01-11T19:12:27.270Z,45.70
2023-01-11T19:14:59.411Z,44.50
2023-01-11T19:17:31.697Z,45.80
2023-01-11T19:20:04.491Z,45.20
2023-01-11T19:22:37.556Z,42.80
2023-01-11T19:25:09.952Z,42.00
2023-01-11T19:27:41.560Z,43.80
2023-01-11T19:30:13.652Z,38.80
2023-01-11T19:32:51.754Z,42.40
2023-01-11T19:35:26.912Z,37.80
2023-01-11T19:37:58.549Z,40.70
2023-01-11T19:40:33.078Z,39.30
2023-01-11T19:43:04.736Z,44.10
2023-01-11T19:45:37.249Z,48.30
2023-01-11T19:48:08.848Z,43.00
2023-01-11T19:50:42.914Z,49.10
2023-01-11T19:53:14.533Z,44.90
2023-01-11T19:55:46.242Z,37.90
2023-01-11T19:58:17.921Z,47.40
2023-01-11T20:00:49.645Z,36.20
2023-01-11T20:03:21.248Z,37.00
2023-01-11T20:05:52.893Z,45.10
2023-01-11T20:08:26.795Z,43.50
2023-01-11T20:11:05.184Z,28.10
2023-01-11T20:13:36.952Z,29.90
2023-01-11T20:16:11.861Z,31.30
2023-01-11T20:19:04.141Z,34.10
2023-01-11T20:21:35.756Z,34.40
2023-01-11T20:24:07.853Z,36.30
2023-01-11T20:26:39.951Z,30.60
2023-01-11T20:29:11.620Z,24.90
2023-01-11T20:31:43.458Z,25.90
2023-01-11T20:34:17.068Z,28.80
2023-01-11T20:39:21.171Z,29.40
2023-01-11T20:41:56.180Z,28.80
2023-01-11T20:44:28.263Z,32.90
2023-01-11T20:47:00.435Z,31.20
2023-01-11T20:49:35.291Z,27.50
2023-01-11T20:52:07.073Z,27.10
2023-01-11T20:54:38.774Z,30.80
2023-01-11T20:57:12.726Z,28.60
2023-01-11T20:59:44.385Z,26.00
2023-01-11T21:02:16.861Z,22.90
2023-01-11T21:04:49.286Z,25.00
2023-01-11T21:07:20.935Z,27.40
2023-01-11T21:09:52.611Z,25.70
2023-01-11T21:12:27.103Z,23.90
2023-01-11T21:14:58.643Z,28.20
2023-01-11T21:17:33.198Z,27.60
2023-01-11T21:20:05.636Z,25.70
2023-01-11T21:22:37.257Z,26.90
2023-01-11T21:25:09.196Z,24.60
2023-01-11T21:27:47.884Z,34.20
2023-01-11T21:30:21.820Z,24.80
2023-01-11T21:32:54.762Z,26.40
2023-01-11T21:35:27.258Z,25.10
2023-01-11T21:37:58.923Z,25.30
2023-01-11T21:40:32.000Z,25.60
2023-01-11T21:43:03.721Z,21.20
2023-01-11T21:45:35.314Z,19.70
2023-01-11T21:48:07.020Z,25.10
2023-01-11T21:50:38.679Z,25.30
2023-01-11T21:53:10.306Z,26.30
2023-01-11T21:55:42.015Z,27.80
2023-01-11T21:58:13.910Z,31.90
2023-01-11T22:00:45.584Z,25.00
2023-01-11T22:03:17.200Z,24.40
2023-01-11T22:05:48.866Z,29.60
2023-01-11T22:08:22.633Z,34.20
2023-01-11T22:13:35.699Z,28.40
2023-01-11T22:16:15.045Z,29.60
2023-01-11T22:18:48.922Z,29.80
2023-01-11T22:21:20.954Z,36.10
2023-01-11T22:23:58.130Z,47.10
2023-01-11T22:26:34.920Z,46.00
2023-01-11T22:29:12.564Z,37.70
2023-01-11T22:31:55.099Z,34.50
2023-01-11T22:34:28.262Z,32.40
2023-01-11T22:37:04.813Z,29.40
2023-01-11T22:39:40.802Z,27.50
2023-01-11T22:42:12.381Z,28.40
2023-01-11T22:44:47.229Z,34.10
2023-01-11T22:47:18.842Z,30.40
2023-01-11T22:49:56.001Z,32.60
2023-01-11T22:52:27.565Z,31.50
2023-01-11T22:54:59.254Z,34.20
2023-01-11T22:57:32.170Z,33.30
2023-01-11T23:00:06.612Z,34.50
2023-01-11T23:02:38.380Z,29.90
2023-01-11T23:05:10.241Z,33.80
2023-01-11T23:07:43.781Z,35.50
2023-01-11T23:10:15.891Z,30.00
2023-01-11T23:13:06.396Z,29.30
2023-01-11T23:15:39.396Z,31.70
2023-01-11T23:18:12.053Z,30.00
2023-01-11T23:20:43.667Z,31.10
2023-01-11T23:23:17.732Z,36.30
2023-01-11T23:25:54.599Z,32.00
2023-01-11T23:28:29.977Z,28.90
2023-01-11T23:31:12.617Z,31.10
2023-01-11T23:33:46.179Z,28.80
2023-01-11T23:36:23.108Z,30.90
2023-01-11T23:38:54.634Z,28.70
2023-01-11T23:41:46.736Z,27.40
2023-01-11T23:44:18.739Z,27.80
2023-01-11T23:47:09.482Z,28.50
2023-01-11T23:49:45.288Z,29.20
2023-01-11T23:52:18.034Z,25.10
2023-01-11T23:54:49.998Z,23.90
2023-01-11T23:57:22.594Z,22.00
2023-01-11T23:59:54.260Z,23.00
